To NAV CANADA Home Page Login to a new session Search on AWWS site Feedback and Comments Disclaimer Vers la page française équivalente Tips FAQ What's new on the site To the Forecasts and Observations / NOTAM section To "File a Flight Plan" website Publications and other links Update of the User's profile FIC Telephone Numbers My Weather Data Folder Route Weather Data Regional Weather Data Local Weather Data To the Forecasts and Observations / NOTAM section
Request Generated 10/01/2016 at 12:01:50 UTC . Weather information available at that time is displayed.

METAR/TAF

EARLTON/EARLTON (TIMISKAMING REGIONAL)/ON    (show WxCam)

METAR CYXR 011200Z AUTO 32005KT 9SM SCT150 BKN170 07/06 A3032 RMK
SLP276=
METAR CYXR 011100Z AUTO 34004KT 9SM FEW150 06/05 A3032 RMK SLP277=
METAR CYXR 011000Z AUTO 36004KT 9SM CLR 06/05 A3033 RMK SLP278=

TAF CYXR 011139Z 0112/0124 36005KT P6SM SCT150
BECMG 0113/0115 07008KT BKN100
RMK FCST BASED ON AUTO OBS. NXT FCST BY 011800Z=
Your time UTC time
Weather data provided by Environment Canada and NAV CANADA